createdAt,value
2022-08-05T05:02:07.481Z,23.15
2022-08-05T05:04:33.628Z,23.22
2022-08-05T05:07:00.108Z,23.22
2022-08-05T05:09:28.844Z,23.19
2022-08-05T05:12:00.283Z,23.15
2022-08-05T05:14:31.860Z,23.09
2022-08-05T05:17:01.793Z,23.09
2022-08-05T05:19:37.146Z,23.15
2022-08-05T05:22:23.870Z,23.17
2022-08-05T05:24:57.548Z,23.20
2022-08-05T05:27:44.730Z,23.21
2022-08-05T05:30:30.914Z,23.22
2022-08-05T05:33:08.892Z,23.17
2022-08-05T05:35:46.826Z,23.07
2022-08-05T05:38:14.576Z,22.97
2022-08-05T05:40:49.621Z,22.98
2022-08-05T05:43:22.350Z,23.04
2022-08-05T05:46:05.258Z,23.10
2022-08-05T05:48:34.576Z,23.16
2022-08-05T05:51:15.135Z,23.14
2022-08-05T05:53:46.020Z,23.13
2022-08-05T05:56:33.084Z,23.18
2022-08-05T05:59:03.532Z,23.29
2022-08-05T06:01:37.742Z,23.34
2022-08-05T06:04:06.739Z,23.42
2022-08-05T06:06:34.873Z,23.51
2022-08-05T06:09:02.089Z,23.60
2022-08-05T06:11:30.374Z,23.67
2022-08-05T06:13:56.881Z,23.76
2022-08-05T06:16:29.970Z,23.80
2022-08-05T06:18:59.916Z,23.82
2022-08-05T06:21:37.011Z,23.91
2022-08-05T06:24:11.937Z,24.01
2022-08-05T06:26:51.759Z,24.14
2022-08-05T06:29:42.778Z,24.26
2022-08-05T06:32:21.195Z,24.35
2022-08-05T06:34:57.818Z,24.41
2022-08-05T06:37:56.037Z,24.44
2022-08-05T06:40:18.539Z,24.51
2022-08-05T06:42:51.634Z,24.59
2022-08-05T06:45:21.006Z,24.65
2022-08-05T06:48:36.518Z,24.73
2022-08-05T06:50:34.261Z,24.84
2022-08-05T06:53:03.947Z,24.94
2022-08-05T06:55:38.264Z,25.00
2022-08-05T06:58:20.242Z,25.05
2022-08-05T07:00:55.636Z,25.07
2022-08-05T07:03:22.093Z,25.12
2022-08-05T07:05:59.116Z,25.17
2022-08-05T07:08:25.584Z,25.22
2022-08-05T07:10:53.177Z,25.27
2022-08-05T07:13:58.681Z,25.28
2022-08-05T07:18:01.084Z,25.21
2022-08-05T07:22:27.697Z,24.93
2022-08-05T07:24:56.460Z,24.93
2022-08-05T07:27:23.072Z,24.87
2022-08-05T07:30:24.367Z,24.79
2022-08-05T07:32:40.781Z,24.65
2022-08-05T07:36:02.115Z,24.55
2022-08-05T07:37:56.635Z,24.42
2022-08-05T07:40:32.403Z,24.31
2022-08-05T07:42:59.830Z,24.23
2022-08-05T07:45:57.527Z,24.15
2022-08-05T07:49:04.516Z,24.03
2022-08-05T07:51:05.295Z,23.89
2022-08-05T07:53:50.548Z,23.85
2022-08-05T07:57:01.196Z,23.73
2022-08-05T07:59:04.839Z,23.68
2022-08-05T08:01:35.079Z,23.70
2022-08-05T08:04:07.970Z,23.68
2022-08-05T08:06:34.446Z,23.66
2022-08-05T08:09:00.900Z,23.63
2022-08-05T08:11:51.286Z,23.61
2022-08-05T08:14:18.295Z,23.55
2022-08-05T08:16:50.872Z,23.51
2022-08-05T08:20:10.201Z,23.48
2022-08-05T08:22:04.840Z,23.40
2022-08-05T08:24:50.978Z,23.33
2022-08-05T08:27:17.844Z,23.29
2022-08-05T08:30:03.645Z,23.27
2022-08-05T08:32:34.058Z,23.27
2022-08-05T08:35:07.507Z,23.32
2022-08-05T08:37:40.620Z,23.34
2022-08-05T08:40:11.808Z,23.28
2022-08-05T08:42:51.008Z,23.28
2022-08-05T08:45:26.606Z,23.34
2022-08-05T08:48:11.767Z,23.39
2022-08-05T08:51:03.411Z,23.42
2022-08-05T08:53:30.207Z,23.43
2022-08-05T08:56:02.774Z,23.40
2022-08-05T08:58:37.458Z,23.36
2022-08-05T09:01:15.792Z,23.33
2022-08-05T09:03:46.217Z,23.32
2022-08-05T09:06:17.145Z,23.37
2022-08-05T09:08:46.772Z,23.37
2022-08-05T09:11:14.778Z,23.38
2022-08-05T09:14:09.361Z,23.40
2022-08-05T09:16:28.744Z,23.50
2022-08-05T09:18:55.776Z,23.59
2022-08-05T09:22:22.593Z,23.67
2022-08-05T09:24:15.422Z,23.78
2022-08-05T09:26:43.587Z,23.81
2022-08-05T09:29:10.284Z,23.82
2022-08-05T09:32:41.064Z,23.85
2022-08-05T09:34:26.122Z,23.94
2022-08-05T09:36:54.837Z,24.04
2022-08-05T09:39:24.581Z,24.16
2022-08-05T09:42:07.815Z,24.23
2022-08-05T09:44:44.549Z,24.28
2022-08-05T09:47:20.666Z,24.34
2022-08-05T09:50:01.003Z,24.45
2022-08-05T09:52:36.056Z,24.50
2022-08-05T09:55:56.993Z,24.63
2022-08-05T09:57:58.734Z,24.76
2022-08-05T10:00:26.771Z,24.84
2022-08-05T10:02:54.700Z,24.97
2022-08-05T10:05:26.715Z,25.01
2022-08-05T10:08:36.587Z,25.03
2022-08-05T10:10:43.643Z,25.10
2022-08-05T10:13:10.555Z,25.17
2022-08-05T10:15:39.689Z,25.17
2022-08-05T10:18:13.596Z,25.25
2022-08-05T10:20:48.763Z,25.33
2022-08-05T10:23:55.724Z,25.32
2022-08-05T10:26:52.354Z,25.29
2022-08-05T10:28:59.338Z,25.37
2022-08-05T10:32:52.387Z,25.39
2022-08-05T10:34:12.449Z,25.40
2022-08-05T10:36:41.422Z,25.44
2022-08-05T10:39:58.960Z,25.46
2022-08-05T10:42:33.761Z,25.49
2022-08-05T10:45:01.403Z,25.56
2022-08-05T10:47:33.300Z,25.58
2022-08-05T10:50:32.496Z,25.56
2022-08-05T10:53:02.917Z,25.46
2022-08-05T10:55:32.813Z,25.44
2022-08-05T10:58:20.460Z,25.41
2022-08-05T11:00:48.086Z,25.45
2022-08-05T11:03:25.950Z,25.48
2022-08-05T11:06:15.513Z,25.49
2022-08-05T11:09:13.017Z,25.51
2022-08-05T11:11:52.050Z,25.60
2022-08-05T11:14:57.736Z,25.57
2022-08-05T11:17:57.778Z,25.58
2022-08-05T11:20:37.499Z,25.59
2022-08-05T11:24:05.377Z,25.49
2022-08-05T11:26:28.772Z,25.46
2022-08-05T11:29:06.638Z,25.35
2022-08-05T11:31:57.800Z,25.32
2022-08-05T11:34:51.479Z,25.43
2022-08-05T11:38:36.840Z,25.57
2022-08-05T11:41:13.890Z,25.62
2022-08-05T11:44:07.551Z,25.69
2022-08-05T11:46:58.188Z,25.71
2022-08-05T11:49:34.882Z,25.82
2022-08-05T11:52:01.872Z,25.91
2022-08-05T11:54:38.278Z,26.01
2022-08-05T11:57:24.541Z,26.03
2022-08-05T11:59:52.326Z,26.08
2022-08-05T12:02:31.721Z,26.08
2022-08-05T12:05:00.611Z,26.09
2022-08-05T12:08:07.981Z,26.15
2022-08-05T12:10:21.520Z,26.16
2022-08-05T12:12:59.415Z,26.11
2022-08-05T12:15:37.974Z,26.14
2022-08-05T12:18:10.624Z,26.09
2022-08-05T12:20:38.522Z,26.10
2022-08-05T12:23:11.680Z,26.12
2022-08-05T12:25:56.815Z,26.07
2022-08-05T12:28:41.649Z,26.12
2022-08-05T12:31:23.205Z,26.20
2022-08-05T12:33:59.387Z,26.17
2022-08-05T12:36:28.000Z,26.14
2022-08-05T12:38:55.262Z,26.21
2022-08-05T12:41:21.762Z,26.27
2022-08-05T12:44:03.393Z,26.27
2022-08-05T12:46:31.559Z,26.36
2022-08-05T12:49:13.200Z,26.44
2022-08-05T12:52:14.263Z,26.38
2022-08-05T12:54:35.079Z,26.37
2022-08-05T12:57:09.154Z,26.41
2022-08-05T13:01:57.259Z,26.48
2022-08-05T13:02:40.182Z,26.58
2022-08-05T13:05:07.587Z,26.59
2022-08-05T13:10:21.712Z,26.48
2022-08-05T13:12:50.789Z,26.48
2022-08-05T13:15:35.966Z,26.45
2022-08-05T13:18:19.543Z,26.44
2022-08-05T13:20:46.493Z,26.52
2022-08-05T13:23:12.947Z,26.70
2022-08-05T13:25:51.650Z,26.89
2022-08-05T13:28:25.574Z,27.11
2022-08-05T13:30:53.199Z,27.18
2022-08-05T13:34:24.219Z,27.20
2022-08-05T13:36:09.179Z,27.21
2022-08-05T13:38:42.428Z,27.20
2022-08-05T13:41:10.968Z,27.06
2022-08-05T13:43:44.496Z,26.96
2022-08-05T13:46:50.839Z,26.90
2022-08-05T13:49:10.281Z,26.88
2022-08-05T13:51:41.225Z,26.93
2022-08-05T13:54:12.742Z,27.01
2022-08-05T13:56:45.587Z,27.08
2022-08-05T13:59:25.011Z,27.04
2022-08-05T14:01:57.607Z,27.08
2022-08-05T14:05:05.396Z,26.97
2022-08-05T14:07:59.995Z,27.02
2022-08-05T14:10:31.036Z,27.11
2022-08-05T14:12:58.552Z,27.10
2022-08-05T14:16:04.341Z,27.17
2022-08-05T14:18:15.271Z,27.15
2022-08-05T14:20:46.904Z,27.22
2022-08-05T14:23:13.960Z,27.28
2022-08-05T14:25:48.286Z,27.28
2022-08-05T14:28:26.017Z,27.28
2022-08-05T14:30:53.563Z,27.29
2022-08-05T14:33:22.755Z,27.18
2022-08-05T14:35:51.537Z,27.15
2022-08-05T14:38:31.639Z,27.08
2022-08-05T14:41:01.982Z,26.92
2022-08-05T14:44:01.905Z,26.88
2022-08-05T14:46:18.804Z,26.87
2022-08-05T14:48:49.354Z,26.89
2022-08-05T14:51:17.533Z,26.81
2022-08-05T14:53:44.988Z,26.82
2022-08-05T14:56:13.377Z,26.86
2022-08-05T14:58:39.933Z,26.79
2022-08-05T15:01:15.561Z,26.65
2022-08-05T15:03:42.777Z,26.53
2022-08-05T15:06:14.949Z,26.36
2022-08-05T15:09:01.357Z,26.22
2022-08-05T15:11:51.209Z,26.10
2022-08-05T15:14:33.979Z,25.82
2022-08-05T15:17:04.684Z,25.72
2022-08-05T15:19:31.957Z,25.52
2022-08-05T15:22:00.755Z,25.40
2022-08-05T15:24:28.118Z,25.19
2022-08-05T15:26:55.797Z,25.08
2022-08-05T15:29:22.803Z,25.04
2022-08-05T15:31:52.784Z,24.94
2022-08-05T15:34:33.066Z,24.98
2022-08-05T15:37:06.446Z,24.85
2022-08-05T15:40:58.546Z,24.80
2022-08-05T15:42:53.726Z,24.85
2022-08-05T15:45:14.445Z,24.69
2022-08-05T15:47:42.339Z,24.49
2022-08-05T15:50:09.803Z,24.39
2022-08-05T15:52:52.934Z,24.32
2022-08-05T15:55:25.113Z,24.36
2022-08-05T15:58:07.892Z,24.35
2022-08-05T16:00:50.979Z,24.31
2022-08-05T16:03:20.770Z,24.31
2022-08-05T16:05:50.790Z,24.25
2022-08-05T16:08:19.129Z,24.13
2022-08-05T16:10:45.667Z,24.05
2022-08-05T16:13:12.520Z,23.82
2022-08-05T16:15:45.822Z,23.71
2022-08-05T16:18:14.475Z,23.67
2022-08-05T16:20:40.926Z,23.71
2022-08-05T16:23:08.636Z,23.66
2022-08-05T16:25:35.924Z,23.53
2022-08-05T16:28:06.591Z,23.39
2022-08-05T16:30:36.447Z,23.24
2022-08-05T16:33:03.214Z,23.12
2022-08-05T16:35:32.507Z,23.12
2022-08-05T16:38:15.361Z,23.15
2022-08-05T16:40:55.457Z,23.20
2022-08-05T16:43:23.809Z,23.20
2022-08-05T16:46:04.415Z,23.23
2022-08-05T16:48:35.303Z,23.27
2022-08-05T16:51:02.241Z,23.26
2022-08-05T16:54:02.171Z,23.31
2022-08-05T16:56:17.392Z,23.35
2022-08-05T16:58:44.028Z,23.37
2022-08-05T17:01:10.813Z,23.39
2022-08-05T17:03:37.600Z,23.36
2022-08-05T17:06:05.726Z,23.23
2022-08-05T17:08:35.936Z,23.24
2022-08-05T17:11:12.600Z,23.25
2022-08-05T17:13:43.639Z,23.16
2022-08-05T17:16:27.984Z,23.07
2022-08-05T17:18:56.504Z,23.01
2022-08-05T17:21:23.706Z,22.90
2022-08-05T17:24:04.311Z,22.90
2022-08-05T17:26:35.415Z,22.87
2022-08-05T17:29:07.340Z,22.75
2022-08-05T17:31:57.033Z,22.68
2022-08-05T17:34:30.045Z,22.64
2022-08-05T17:36:59.780Z,22.63
2022-08-05T17:39:33.554Z,22.68
2022-08-05T17:42:19.658Z,22.74
2022-08-05T17:44:50.178Z,22.77
2022-08-05T17:47:18.591Z,22.84
2022-08-05T17:50:00.289Z,22.84
2022-08-05T17:52:31.908Z,22.84
2022-08-05T17:54:58.407Z,22.83
2022-08-05T17:57:24.856Z,22.71
2022-08-05T18:00:05.028Z,22.64
2022-08-05T18:02:32.864Z,22.61
2022-08-05T18:05:03.696Z,22.59
2022-08-05T18:07:41.503Z,22.63
2022-08-05T18:10:10.985Z,22.67
2022-08-05T18:12:38.249Z,22.72
2022-08-05T18:15:05.560Z,22.66
2022-08-05T18:17:59.269Z,22.64
2022-08-05T18:20:19.368Z,22.57
2022-08-05T18:22:57.574Z,22.55
2022-08-05T18:25:25.018Z,22.51
2022-08-05T18:27:52.457Z,22.49
2022-08-05T18:30:19.387Z,22.45
2022-08-05T18:32:53.459Z,22.49
2022-08-05T18:35:28.344Z,22.55
2022-08-05T18:38:13.667Z,22.54
2022-08-05T18:41:56.463Z,22.50
2022-08-05T18:43:37.727Z,22.41
2022-08-05T18:46:06.849Z,22.36
2022-08-05T18:48:36.748Z,22.31
2022-08-05T18:52:05.065Z,22.24
2022-08-05T18:54:14.017Z,22.25
2022-08-05T18:56:40.524Z,22.28
2022-08-05T18:59:44.199Z,22.28
2022-08-05T19:01:56.830Z,22.22
2022-08-05T19:04:24.511Z,22.20
2022-08-05T19:06:51.530Z,22.19
2022-08-05T19:09:20.480Z,22.15
2022-08-05T19:12:01.084Z,22.09
2022-08-05T19:14:52.114Z,21.98
2022-08-05T19:17:16.619Z,21.95
2022-08-05T19:19:47.090Z,21.92
2022-08-05T19:22:17.231Z,21.90
2022-08-05T19:24:54.217Z,21.88
2022-08-05T19:27:23.335Z,21.91
2022-08-05T19:29:49.977Z,21.91
2022-08-05T19:32:16.601Z,21.83
2022-08-05T19:34:54.606Z,21.80
2022-08-05T19:37:21.833Z,21.76
2022-08-05T19:39:58.073Z,21.70
2022-08-05T19:42:35.108Z,21.66
2022-08-05T19:45:02.848Z,21.58
2022-08-05T19:47:33.002Z,21.53
2022-08-05T19:50:00.943Z,21.49
2022-08-05T19:52:40.308Z,21.41
2022-08-05T19:56:11.691Z,21.35
2022-08-05T19:58:10.379Z,21.32
2022-08-05T20:00:40.373Z,21.24
2022-08-05T20:03:09.170Z,21.19
2022-08-05T20:05:43.102Z,21.20
2022-08-05T20:08:09.967Z,21.16
2022-08-05T20:10:36.725Z,21.13
2022-08-05T20:13:03.405Z,21.09
2022-08-05T20:15:51.586Z,21.04
2022-08-05T20:18:33.390Z,20.94
2022-08-05T20:21:01.849Z,20.89
2022-08-05T20:23:39.960Z,20.87
2022-08-05T20:26:19.137Z,20.84
2022-08-05T20:28:48.346Z,20.77
2022-08-05T20:31:16.638Z,20.77
2022-08-05T20:33:43.523Z,20.69
2022-08-05T20:36:11.366Z,20.56
2022-08-05T20:38:38.221Z,20.52
2022-08-05T20:41:26.751Z,20.47
2022-08-05T20:43:59.825Z,20.45
2022-08-05T20:46:29.209Z,20.48
2022-08-05T20:48:55.840Z,20.45
2022-08-05T20:51:22.299Z,20.45
2022-08-05T20:53:56.421Z,20.44
2022-08-05T20:56:28.885Z,20.50
2022-08-05T20:59:00.087Z,20.49
2022-08-05T21:01:40.416Z,20.41
2022-08-05T21:04:09.915Z,20.42
2022-08-05T21:06:37.709Z,20.43
2022-08-05T21:09:14.517Z,20.41
2022-08-05T21:12:07.759Z,20.34
2022-08-05T21:14:29.147Z,20.30
2022-08-05T21:17:01.452Z,20.25
2022-08-05T21:19:29.601Z,20.20
2022-08-05T21:22:15.389Z,20.22
2022-08-05T21:24:45.143Z,20.18
2022-08-05T21:27:15.696Z,20.18
2022-08-05T21:29:43.121Z,20.18
2022-08-05T21:32:19.832Z,20.10
2022-08-05T21:35:08.974Z,20.07
2022-08-05T21:37:33.154Z,20.12
2022-08-05T21:40:04.562Z,20.16
2022-08-05T21:42:43.842Z,20.15
2022-08-05T21:45:25.043Z,20.13
2022-08-05T21:48:01.165Z,20.14
2022-08-05T21:50:27.765Z,20.09
2022-08-05T21:52:59.087Z,20.05
2022-08-05T21:56:05.193Z,20.00
2022-08-05T21:58:28.808Z,19.95
2022-08-05T22:00:59.279Z,19.89
2022-08-05T22:03:48.462Z,19.85
2022-08-05T22:06:12.228Z,19.83
2022-08-05T22:08:42.435Z,19.84
2022-08-05T22:11:11.815Z,19.80
2022-08-05T22:14:05.633Z,19.82
2022-08-05T22:16:41.805Z,19.83
2022-08-05T22:19:56.117Z,19.78
2022-08-05T22:22:02.463Z,19.65
2022-08-05T22:24:52.311Z,19.63
2022-08-05T22:28:08.706Z,19.62
2022-08-05T22:30:25.156Z,19.54
2022-08-05T22:33:01.991Z,19.53
2022-08-05T22:35:31.049Z,19.47
2022-08-05T22:38:14.652Z,19.43
2022-08-05T22:40:41.765Z,19.42
2022-08-05T22:43:16.147Z,19.40
2022-08-05T22:46:09.082Z,19.32
2022-08-05T22:48:40.032Z,19.34
2022-08-05T22:51:07.539Z,19.35
2022-08-05T22:53:35.935Z,19.35
2022-08-05T22:56:03.449Z,19.27
2022-08-05T22:58:36.389Z,19.25
2022-08-05T23:01:02.886Z,19.26
2022-08-05T23:03:59.345Z,19.21
2022-08-05T23:06:18.873Z,19.18
2022-08-05T23:08:45.582Z,19.18
2022-08-05T23:11:18.728Z,19.16
2022-08-05T23:13:45.183Z,19.18
2022-08-05T23:16:25.963Z,19.19
2022-08-05T23:18:59.899Z,19.20
2022-08-05T23:21:26.344Z,19.20
2022-08-05T23:24:10.964Z,19.19
2022-08-05T23:26:38.009Z,19.20
2022-08-05T23:29:04.590Z,19.14
2022-08-05T23:31:31.875Z,19.12
2022-08-05T23:34:03.135Z,19.04
2022-08-05T23:36:39.791Z,18.98
2022-08-05T23:39:16.277Z,18.99
2022-08-05T23:41:48.568Z,18.96
2022-08-05T23:44:16.534Z,18.96
2022-08-05T23:46:43.165Z,18.99
2022-08-05T23:49:15.947Z,18.99
2022-08-05T23:52:02.822Z,18.90
2022-08-05T23:54:38.225Z,18.92
2022-08-05T23:57:06.541Z,18.87
